sensor_id;sensor_type;location;lat;lon;timestamp;pressure;altitude;pressure_sealevel;temperature;humidity
21153;BME280;10734;44.792;20.482;2023-08-20T00:01:35;100113.00;;;23.86;nan
21153;BME280;10734;44.792;20.482;2023-08-20T00:04:02;100110.25;;;23.86;nan
21153;BME280;10734;44.792;20.482;2023-08-20T00:06:32;100111.78;;;23.80;nan
21153;BME280;10734;44.792;20.482;2023-08-20T00:08:59;100110.59;;;23.74;nan
21153;BME280;10734;44.792;20.482;2023-08-20T00:11:26;100104.56;;;23.71;nan
21153;BME280;10734;44.792;20.482;2023-08-20T00:13:53;100110.41;;;23.68;nan
21153;BME280;10734;44.792;20.482;2023-08-20T00:16:20;100113.16;;;23.68;nan
21153;BME280;10734;44.792;20.482;2023-08-20T00:18:47;100108.66;;;23.67;nan
21153;BME280;10734;44.792;20.482;2023-08-20T00:21:14;100117.94;;;23.66;nan
21153;BME280;10734;44.792;20.482;2023-08-20T00:23:41;100114.47;;;23.64;nan
21153;BME280;10734;44.792;20.482;2023-08-20T00:26:08;100105.72;;;23.60;nan
21153;BME280;10734;44.792;20.482;2023-08-20T00:28:36;100102.28;;;23.58;nan
21153;BME280;10734;44.792;20.482;2023-08-20T00:31:05;100108.66;;;23.58;nan
21153;BME280;10734;44.792;20.482;2023-08-20T00:33:32;100112.75;;;23.54;nan
21153;BME280;10734;44.792;20.482;2023-08-20T00:35:58;100113.44;;;23.48;nan
21153;BME280;10734;44.792;20.482;2023-08-20T00:40:52;100105.53;;;23.45;nan
21153;BME280;10734;44.792;20.482;2023-08-20T00:43:18;100115.81;;;23.43;nan
21153;BME280;10734;44.792;20.482;2023-08-20T00:45:45;100112.53;;;23.40;nan
21153;BME280;10734;44.792;20.482;2023-08-20T00:48:12;100114.28;;;23.41;nan
21153;BME280;10734;44.792;20.482;2023-08-20T00:50:39;100117.50;;;23.36;nan
21153;BME280;10734;44.792;20.482;2023-08-20T00:53:08;100110.44;;;23.33;nan
21153;BME280;10734;44.792;20.482;2023-08-20T00:55:36;100107.19;;;23.30;nan
21153;BME280;10734;44.792;20.482;2023-08-20T00:58:03;100104.44;;;23.30;nan
21153;BME280;10734;44.792;20.482;2023-08-20T01:00:30;100106.31;;;23.29;nan
21153;BME280;10734;44.792;20.482;2023-08-20T01:02:57;100111.28;;;23.26;nan
21153;BME280;10734;44.792;20.482;2023-08-20T01:05:24;100104.94;;;23.17;nan
21153;BME280;10734;44.792;20.482;2023-08-20T01:07:58;100102.13;;;23.09;nan
21153;BME280;10734;44.792;20.482;2023-08-20T01:30:58;100109.38;;;22.84;nan
21153;BME280;10734;44.792;20.482;2023-08-20T01:50:33;100154.47;;;22.73;nan
21153;BME280;10734;44.792;20.482;2023-08-20T01:53:02;100128.91;;;22.73;nan
21153;BME280;10734;44.792;20.482;2023-08-20T02:02:52;100132.94;;;22.60;nan
21153;BME280;10734;44.792;20.482;2023-08-20T02:05:19;100138.91;;;22.56;nan
21153;BME280;10734;44.792;20.482;2023-08-20T02:07:46;100137.16;;;22.55;nan
21153;BME280;10734;44.792;20.482;2023-08-20T02:10:13;100142.97;;;22.52;nan
21153;BME280;10734;44.792;20.482;2023-08-20T02:12:40;100134.06;;;22.50;nan
21153;BME280;10734;44.792;20.482;2023-08-20T02:15:08;100134.38;;;22.47;nan
21153;BME280;10734;44.792;20.482;2023-08-20T02:17:35;99011.09;;;15.46;nan
21153;BME280;10734;44.792;20.482;2023-08-20T02:20:03;100140.03;;;22.45;nan
21153;BME280;10734;44.792;20.482;2023-08-20T02:24:57;100148.06;;;22.38;nan
21153;BME280;10734;44.792;20.482;2023-08-20T02:27:24;100153.88;;;22.35;nan
21153;BME280;10734;44.792;20.482;2023-08-20T02:29:51;100151.25;;;22.34;nan
21153;BME280;10734;44.792;20.482;2023-08-20T02:32:18;100150.59;;;22.32;nan
21153;BME280;10734;44.792;20.482;2023-08-20T02:34:50;100150.59;;;22.32;nan
21153;BME280;10734;44.792;20.482;2023-08-20T02:37:16;100159.81;;;22.31;nan
21153;BME280;10734;44.792;20.482;2023-08-20T02:39:43;100160.13;;;22.28;nan
21153;BME280;10734;44.792;20.482;2023-08-20T02:42:10;100160.13;;;22.28;nan
21153;BME280;10734;44.792;20.482;2023-08-20T02:44:36;100163.75;;;22.28;nan
21153;BME280;10734;44.792;20.482;2023-08-20T02:47:03;100173.84;;;22.28;nan
21153;BME280;10734;44.792;20.482;2023-08-20T02:56:52;100180.19;;;22.10;nan
21153;BME280;10734;44.792;20.482;2023-08-20T02:59:19;100177.75;;;22.07;nan
21153;BME280;10734;44.792;20.482;2023-08-20T03:01:46;100177.75;;;22.07;nan
21153;BME280;10734;44.792;20.482;2023-08-20T03:04:12;100173.28;;;22.06;nan
21153;BME280;10734;44.792;20.482;2023-08-20T03:06:39;100171.03;;;22.02;nan
21153;BME280;10734;44.792;20.482;2023-08-20T03:09:06;100177.50;;;22.01;nan
21153;BME280;10734;44.792;20.482;2023-08-20T03:13:59;100166.84;;;21.97;nan
21153;BME280;10734;44.792;20.482;2023-08-20T03:16:26;100174.53;;;21.94;nan
21153;BME280;10734;44.792;20.482;2023-08-20T03:18:52;100189.56;;;21.90;nan
21153;BME280;10734;44.792;20.482;2023-08-20T03:21:19;100177.03;;;21.87;nan
21153;BME280;10734;44.792;20.482;2023-08-20T03:23:46;100179.22;;;21.84;nan
21153;BME280;10734;44.792;20.482;2023-08-20T04:05:24;100179.34;;;21.74;nan
21153;BME280;10734;44.792;20.482;2023-08-20T04:22:34;100183.47;;;21.78;nan
21153;BME280;10734;44.792;20.482;2023-08-20T04:25:00;100221.56;;;21.81;nan
21153;BME280;10734;44.792;20.482;2023-08-20T04:27:32;100188.41;;;21.75;nan
21153;BME280;10734;44.792;20.482;2023-08-20T04:44:40;100214.97;;;21.74;nan
21153;BME280;10734;44.792;20.482;2023-08-20T04:56:56;100215.16;;;22.08;nan
21153;BME280;10734;44.792;20.482;2023-08-20T04:59:23;100218.56;;;22.10;nan
21153;BME280;10734;44.792;20.482;2023-08-20T05:01:50;100234.72;;;22.13;nan
21153;BME280;10734;44.792;20.482;2023-08-20T05:04:17;100225.81;;;22.11;nan
21153;BME280;10734;44.792;20.482;2023-08-20T05:06:43;100225.91;;;22.19;nan
21153;BME280;10734;44.792;20.482;2023-08-20T05:09:10;100222.59;;;22.34;nan
21153;BME280;10734;44.792;20.482;2023-08-20T05:11:37;100229.94;;;22.51;nan
21153;BME280;10734;44.792;20.482;2023-08-20T05:16:30;100234.56;;;22.51;nan
21153;BME280;10734;44.792;20.482;2023-08-20T05:18:58;100231.13;;;22.31;nan
21153;BME280;10734;44.792;20.482;2023-08-20T05:21:24;100249.88;;;22.35;nan
21153;BME280;10734;44.792;20.482;2023-08-20T05:23:52;100231.91;;;22.59;nan
21153;BME280;10734;44.792;20.482;2023-08-20T05:26:19;100212.97;;;22.74;nan
21153;BME280;10734;44.792;20.482;2023-08-20T05:28:45;100220.06;;;22.84;nan
21153;BME280;10734;44.792;20.482;2023-08-20T05:31:12;100224.47;;;22.95;nan
21153;BME280;10734;44.792;20.482;2023-08-20T05:36:06;100217.91;;;23.22;nan
21153;BME280;10734;44.792;20.482;2023-08-20T05:38:32;100217.88;;;23.14;nan
21153;BME280;10734;44.792;20.482;2023-08-20T05:48:19;100224.53;;;23.80;nan
21153;BME280;10734;44.792;20.482;2023-08-20T05:58:06;100228.09;;;24.64;nan
21153;BME280;10734;44.792;20.482;2023-08-20T06:20:06;100243.44;;;25.46;nan
21153;BME280;10734;44.792;20.482;2023-08-20T06:27:28;100280.34;;;25.37;nan
21153;BME280;10734;44.792;20.482;2023-08-20T06:29:55;100250.66;;;25.56;nan
21153;BME280;10734;44.792;20.482;2023-08-20T06:32:23;100253.06;;;25.51;nan
21153;BME280;10734;44.792;20.482;2023-08-20T06:42:09;100240.53;;;25.79;nan
21153;BME280;10734;44.792;20.482;2023-08-20T06:44:36;100238.09;;;25.92;nan
21153;BME280;10734;44.792;20.482;2023-08-20T06:47:03;100249.88;;;25.70;nan
21153;BME280;10734;44.792;20.482;2023-08-20T06:49:30;100236.09;;;25.70;nan
21153;BME280;10734;44.792;20.482;2023-08-20T06:51:57;100238.19;;;25.68;nan
21153;BME280;10734;44.792;20.482;2023-08-20T06:54:23;100247.22;;;25.93;nan
21153;BME280;10734;44.792;20.482;2023-08-20T06:59:17;100245.25;;;26.02;nan
21153;BME280;10734;44.792;20.482;2023-08-20T07:01:44;100252.59;;;26.17;nan
21153;BME280;10734;44.792;20.482;2023-08-20T07:04:10;100251.75;;;26.63;nan
21153;BME280;10734;44.792;20.482;2023-08-20T07:06:39;100242.78;;;26.84;nan
21153;BME280;10734;44.792;20.482;2023-08-20T07:09:06;100250.88;;;27.00;nan
21153;BME280;10734;44.792;20.482;2023-08-20T07:13:59;100257.63;;;27.35;nan
21153;BME280;10734;44.792;20.482;2023-08-20T07:16:26;100271.72;;;27.41;nan
21153;BME280;10734;44.792;20.482;2023-08-20T07:18:52;100265.16;;;27.56;nan
21153;BME280;10734;44.792;20.482;2023-08-20T07:21:19;100261.63;;;27.92;nan
21153;BME280;10734;44.792;20.482;2023-08-20T07:23:46;100260.28;;;27.88;nan
21153;BME280;10734;44.792;20.482;2023-08-20T07:26:13;100255.44;;;28.12;nan
21153;BME280;10734;44.792;20.482;2023-08-20T07:31:31;100265.72;;;28.54;nan
21153;BME280;10734;44.792;20.482;2023-08-20T07:38:57;100263.56;;;29.55;nan
21153;BME280;10734;44.792;20.482;2023-08-20T07:53:37;100254.94;;;30.39;nan
21153;BME280;10734;44.792;20.482;2023-08-20T08:00:57;100282.16;;;31.50;nan
21153;BME280;10734;44.792;20.482;2023-08-20T08:25:33;100275.59;;;32.73;nan
21153;BME280;10734;44.792;20.482;2023-08-20T08:59:50;100277.78;;;32.64;nan
21153;BME280;10734;44.792;20.482;2023-08-20T09:04:45;100287.72;;;30.84;nan
21153;BME280;10734;44.792;20.482;2023-08-20T09:07:13;100273.75;;;30.31;nan
21153;BME280;10734;44.792;20.482;2023-08-20T09:09:46;100280.56;;;30.28;nan
21153;BME280;10734;44.792;20.482;2023-08-20T09:34:48;100300.38;;;32.18;nan
21153;BME280;10734;44.792;20.482;2023-08-20T09:47:15;100299.00;;;33.90;nan
21153;BME280;10734;44.792;20.482;2023-08-20T09:49:46;100280.75;;;34.06;nan
21153;BME280;10734;44.792;20.482;2023-08-20T09:52:40;100290.72;;;34.32;nan
21153;BME280;10734;44.792;20.482;2023-08-20T10:02:39;100291.28;;;34.95;nan
21153;BME280;10734;44.792;20.482;2023-08-20T10:05:07;100285.41;;;34.73;nan
21153;BME280;10734;44.792;20.482;2023-08-20T10:12:33;100285.41;;;35.50;nan
21153;BME280;10734;44.792;20.482;2023-08-20T10:15:01;100275.38;;;36.01;nan
21153;BME280;10734;44.792;20.482;2023-08-20T10:17:30;100289.25;;;36.65;nan
21153;BME280;10734;44.792;20.482;2023-08-20T10:32:55;100288.41;;;37.44;nan
21153;BME280;10734;44.792;20.482;2023-08-20T10:35:24;100276.25;;;37.43;nan
21153;BME280;10734;44.792;20.482;2023-08-20T10:38:01;100277.84;;;37.17;nan
21153;BME280;10734;44.792;20.482;2023-08-20T10:43:28;100286.63;;;37.59;nan
21153;BME280;10734;44.792;20.482;2023-08-20T10:48:37;100280.75;;;38.22;nan
21153;BME280;10734;44.792;20.482;2023-08-20T10:51:12;100286.25;;;38.12;nan
21153;BME280;10734;44.792;20.482;2023-08-20T10:53:41;100293.41;;;38.24;nan
21153;BME280;10734;44.792;20.482;2023-08-20T10:58:46;100281.44;;;38.34;nan
21153;BME280;10734;44.792;20.482;2023-08-20T11:01:20;100286.66;;;38.47;nan
21153;BME280;10734;44.792;20.482;2023-08-20T11:03:49;100285.63;;;38.53;nan
21153;BME280;10734;44.792;20.482;2023-08-20T11:06:17;100284.88;;;38.63;nan
21153;BME280;10734;44.792;20.482;2023-08-20T11:08:45;100286.34;;;38.71;nan
21153;BME280;10734;44.792;20.482;2023-08-20T11:11:12;100284.75;;;38.80;nan
21153;BME280;10734;44.792;20.482;2023-08-20T11:13:39;100285.13;;;39.21;nan
21153;BME280;10734;44.792;20.482;2023-08-20T11:16:06;100278.44;;;39.27;nan
21153;BME280;10734;44.792;20.482;2023-08-20T11:18:34;100282.50;;;39.46;nan
21153;BME280;10734;44.792;20.482;2023-08-20T11:21:02;100276.13;;;39.61;nan
21153;BME280;10734;44.792;20.482;2023-08-20T11:23:29;100271.97;;;39.74;nan
21153;BME280;10734;44.792;20.482;2023-08-20T11:25:57;100277.75;;;40.00;nan
21153;BME280;10734;44.792;20.482;2023-08-20T11:28:28;100273.63;;;40.23;nan
21153;BME280;10734;44.792;20.482;2023-08-20T11:30:55;100270.81;;;40.28;nan
21153;BME280;10734;44.792;20.482;2023-08-20T11:33:23;100264.28;;;40.17;nan
21153;BME280;10734;44.792;20.482;2023-08-20T11:35:51;100259.66;;;39.90;nan
21153;BME280;10734;44.792;20.482;2023-08-20T11:38:20;100264.69;;;39.83;nan
21153;BME280;10734;44.792;20.482;2023-08-20T11:40:47;100260.50;;;39.91;nan
21153;BME280;10734;44.792;20.482;2023-08-20T11:43:13;100263.94;;;40.03;nan
21153;BME280;10734;44.792;20.482;2023-08-20T11:45:44;100260.94;;;40.30;nan
21153;BME280;10734;44.792;20.482;2023-08-20T11:48:11;100255.88;;;40.22;nan
21153;BME280;10734;44.792;20.482;2023-08-20T11:50:38;100253.91;;;40.33;nan
21153;BME280;10734;44.792;20.482;2023-08-20T11:53:05;100256.19;;;40.51;nan
21153;BME280;10734;44.792;20.482;2023-08-20T11:55:32;100243.22;;;39.30;nan
21153;BME280;10734;44.792;20.482;2023-08-20T11:57:59;100250.00;;;39.81;nan
21153;BME280;10734;44.792;20.482;2023-08-20T12:00:26;100253.63;;;40.44;nan
21153;BME280;10734;44.792;20.482;2023-08-20T12:02:54;100252.50;;;40.56;nan
21153;BME280;10734;44.792;20.482;2023-08-20T12:05:28;100246.09;;;39.82;nan
21153;BME280;10734;44.792;20.482;2023-08-20T12:07:56;100239.44;;;39.51;nan
21153;BME280;10734;44.792;20.482;2023-08-20T12:10:26;100241.94;;;38.78;nan
21153;BME280;10734;44.792;20.482;2023-08-20T12:12:54;100242.72;;;38.41;nan
21153;BME280;10734;44.792;20.482;2023-08-20T12:15:23;100232.69;;;38.50;nan
21153;BME280;10734;44.792;20.482;2023-08-20T12:18:06;100235.19;;;38.47;nan
21153;BME280;10734;44.792;20.482;2023-08-20T12:20:34;100230.63;;;38.41;nan
21153;BME280;10734;44.792;20.482;2023-08-20T12:23:03;100228.94;;;38.40;nan
21153;BME280;10734;44.792;20.482;2023-08-20T12:25:33;100233.28;;;38.52;nan
21153;BME280;10734;44.792;20.482;2023-08-20T12:28:01;100240.44;;;38.97;nan
21153;BME280;10734;44.792;20.482;2023-08-20T12:30:31;100233.53;;;39.15;nan
21153;BME280;10734;44.792;20.482;2023-08-20T12:32:58;100224.75;;;39.07;nan
21153;BME280;10734;44.792;20.482;2023-08-20T12:35:25;100227.22;;;39.40;nan
21153;BME280;10734;44.792;20.482;2023-08-20T12:37:52;100230.03;;;39.83;nan
21153;BME280;10734;44.792;20.482;2023-08-20T12:40:19;100222.75;;;40.07;nan
21153;BME280;10734;44.792;20.482;2023-08-20T12:42:46;100230.50;;;40.48;nan
21153;BME280;10734;44.792;20.482;2023-08-20T12:45:13;100228.22;;;40.44;nan
21153;BME280;10734;44.792;20.482;2023-08-20T12:47:40;100229.38;;;40.54;nan
21153;BME280;10734;44.792;20.482;2023-08-20T12:50:07;100243.19;;;40.55;nan
21153;BME280;10734;44.792;20.482;2023-08-20T12:52:34;100214.44;;;40.79;nan
21153;BME280;10734;44.792;20.482;2023-08-20T12:55:02;100214.75;;;40.67;nan
21153;BME280;10734;44.792;20.482;2023-08-20T12:57:30;100216.72;;;40.87;nan
21153;BME280;10734;44.792;20.482;2023-08-20T12:59:57;100215.03;;;41.01;nan
21153;BME280;10734;44.792;20.482;2023-08-20T13:02:24;100208.50;;;40.96;nan
21153;BME280;10734;44.792;20.482;2023-08-20T13:04:51;100201.16;;;40.89;nan
21153;BME280;10734;44.792;20.482;2023-08-20T13:07:18;100190.72;;;40.44;nan
21153;BME280;10734;44.792;20.482;2023-08-20T13:09:45;100186.75;;;40.40;nan
21153;BME280;10734;44.792;20.482;2023-08-20T13:12:12;100183.03;;;40.09;nan
21153;BME280;10734;44.792;20.482;2023-08-20T13:14:40;100182.00;;;40.61;nan
21153;BME280;10734;44.792;20.482;2023-08-20T13:17:08;100184.81;;;40.71;nan
21153;BME280;10734;44.792;20.482;2023-08-20T13:19:36;100186.47;;;40.41;nan
21153;BME280;10734;44.792;20.482;2023-08-20T13:22:03;100190.13;;;40.32;nan
21153;BME280;10734;44.792;20.482;2023-08-20T13:24:30;100181.97;;;40.76;nan
21153;BME280;10734;44.792;20.482;2023-08-20T13:26:57;100173.22;;;40.73;nan
21153;BME280;10734;44.792;20.482;2023-08-20T13:29:24;100176.31;;;40.51;nan
21153;BME280;10734;44.792;20.482;2023-08-20T13:31:50;100172.38;;;40.36;nan
21153;BME280;10734;44.792;20.482;2023-08-20T13:34:17;100172.34;;;40.26;nan
21153;BME280;10734;44.792;20.482;2023-08-20T13:36:44;100172.94;;;40.33;nan
21153;BME280;10734;44.792;20.482;2023-08-20T13:39:11;100171.28;;;40.68;nan
21153;BME280;10734;44.792;20.482;2023-08-20T13:41:41;100167.03;;;40.76;nan
21153;BME280;10734;44.792;20.482;2023-08-20T13:44:07;100162.50;;;40.75;nan
21153;BME280;10734;44.792;20.482;2023-08-20T13:46:35;100165.31;;;40.85;nan
21153;BME280;10734;44.792;20.482;2023-08-20T13:49:02;100161.94;;;40.47;nan
21153;BME280;10734;44.792;20.482;2023-08-20T13:51:29;100158.00;;;40.63;nan
21153;BME280;10734;44.792;20.482;2023-08-20T13:53:56;100148.13;;;40.71;nan
21153;BME280;10734;44.792;20.482;2023-08-20T13:56:24;100155.16;;;40.79;nan
21153;BME280;10734;44.792;20.482;2023-08-20T13:58:55;100155.44;;;40.98;nan
21153;BME280;10734;44.792;20.482;2023-08-20T14:01:22;100148.09;;;40.86;nan
21153;BME280;10734;44.792;20.482;2023-08-20T14:03:49;100147.78;;;40.93;nan
21153;BME280;10734;44.792;20.482;2023-08-20T14:06:16;100148.66;;;40.27;nan
21153;BME280;10734;44.792;20.482;2023-08-20T14:08:43;100151.97;;;39.88;nan
21153;BME280;10734;44.792;20.482;2023-08-20T14:11:10;100144.09;;;40.06;nan
21153;BME280;10734;44.792;20.482;2023-08-20T14:13:36;100146.09;;;40.20;nan
21153;BME280;10734;44.792;20.482;2023-08-20T14:16:03;100141.34;;;40.47;nan
21153;BME280;10734;44.792;20.482;2023-08-20T14:18:30;100139.56;;;39.26;nan
21153;BME280;10734;44.792;20.482;2023-08-20T14:20:57;100132.81;;;39.28;nan
21153;BME280;10734;44.792;20.482;2023-08-20T14:23:24;100139.28;;;39.28;nan
21153;BME280;10734;44.792;20.482;2023-08-20T14:25:51;100135.41;;;39.39;nan
21153;BME280;10734;44.792;20.482;2023-08-20T14:28:20;100142.31;;;39.74;nan
21153;BME280;10734;44.792;20.482;2023-08-20T14:30:48;100142.44;;;40.20;nan
21153;BME280;10734;44.792;20.482;2023-08-20T14:33:20;100145.84;;;40.48;nan
21153;BME280;10734;44.792;20.482;2023-08-20T14:35:47;100146.41;;;40.55;nan
21153;BME280;10734;44.792;20.482;2023-08-20T14:38:14;100131.59;;;38.12;nan
21153;BME280;10734;44.792;20.482;2023-08-20T14:40:41;100132.88;;;38.31;nan
21153;BME280;10734;44.792;20.482;2023-08-20T14:43:07;100144.19;;;39.06;nan
21153;BME280;10734;44.792;20.482;2023-08-20T14:45:35;100138.28;;;39.60;nan
21153;BME280;10734;44.792;20.482;2023-08-20T14:48:01;100135.78;;;39.11;nan
21153;BME280;10734;44.792;20.482;2023-08-20T14:50:30;100141.50;;;39.21;nan
21153;BME280;10734;44.792;20.482;2023-08-20T14:52:57;100136.41;;;39.23;nan
21153;BME280;10734;44.792;20.482;2023-08-20T14:55:24;100132.50;;;39.24;nan
21153;BME280;10734;44.792;20.482;2023-08-20T14:57:51;100139.44;;;39.64;nan
21153;BME280;10734;44.792;20.482;2023-08-20T15:00:18;100146.03;;;40.00;nan
21153;BME280;10734;44.792;20.482;2023-08-20T15:02:46;100134.19;;;39.93;nan
21153;BME280;10734;44.792;20.482;2023-08-20T15:05:13;100178.16;;;39.79;nan
21153;BME280;10734;44.792;20.482;2023-08-20T15:07:40;100135.09;;;40.09;nan
21153;BME280;10734;44.792;20.482;2023-08-20T15:10:07;100133.91;;;40.05;nan
21153;BME280;10734;44.792;20.482;2023-08-20T15:12:37;100140.97;;;39.29;nan
21153;BME280;10734;44.792;20.482;2023-08-20T15:15:04;100137.91;;;39.36;nan
21153;BME280;10734;44.792;20.482;2023-08-20T15:17:32;100128.34;;;39.37;nan
21153;BME280;10734;44.792;20.482;2023-08-20T15:19:59;100136.59;;;39.64;nan
21153;BME280;10734;44.792;20.482;2023-08-20T15:22:26;100135.31;;;39.82;nan
21153;BME280;10734;44.792;20.482;2023-08-20T15:24:53;100132.50;;;39.92;nan
21153;BME280;10734;44.792;20.482;2023-08-20T15:27:23;100124.03;;;39.97;nan
21153;BME280;10734;44.792;20.482;2023-08-20T15:29:50;100134.22;;;40.13;nan
21153;BME280;10734;44.792;20.482;2023-08-20T15:32:17;100123.78;;;40.04;nan
21153;BME280;10734;44.792;20.482;2023-08-20T15:34:44;100127.22;;;40.21;nan
21153;BME280;10734;44.792;20.482;2023-08-20T15:37:11;100129.19;;;40.15;nan
21153;BME280;10734;44.792;20.482;2023-08-20T15:39:38;100121.56;;;40.16;nan
21153;BME280;10734;44.792;20.482;2023-08-20T15:42:05;100126.94;;;40.23;nan
21153;BME280;10734;44.792;20.482;2023-08-20T15:44:32;100117.63;;;40.17;nan
21153;BME280;10734;44.792;20.482;2023-08-20T15:46:59;100119.53;;;40.11;nan
21153;BME280;10734;44.792;20.482;2023-08-20T15:49:26;100117.28;;;40.03;nan
21153;BME280;10734;44.792;20.482;2023-08-20T15:51:54;100120.25;;;39.61;nan
21153;BME280;10734;44.792;20.482;2023-08-20T15:54:21;100121.28;;;38.49;nan
21153;BME280;10734;44.792;20.482;2023-08-20T15:56:47;100111.78;;;38.61;nan
21153;BME280;10734;44.792;20.482;2023-08-20T15:59:14;100122.91;;;38.45;nan
21153;BME280;10734;44.792;20.482;2023-08-20T16:16:23;100117.13;;;37.98;nan
21153;BME280;10734;44.792;20.482;2023-08-20T16:21:17;100118.78;;;37.72;nan
21153;BME280;10734;44.792;20.482;2023-08-20T16:23:44;100116.38;;;37.58;nan
21153;BME280;10734;44.792;20.482;2023-08-20T16:26:11;100120.44;;;37.68;nan
21153;BME280;10734;44.792;20.482;2023-08-20T16:28:40;100133.16;;;37.53;nan
21153;BME280;10734;44.792;20.482;2023-08-20T16:31:08;100126.59;;;37.26;nan
21153;BME280;10734;44.792;20.482;2023-08-20T16:33:36;100129.59;;;36.97;nan
21153;BME280;10734;44.792;20.482;2023-08-20T16:36:03;100133.19;;;36.59;nan
21153;BME280;10734;44.792;20.482;2023-08-20T16:38:30;100123.84;;;36.53;nan
21153;BME280;10734;44.792;20.482;2023-08-20T16:41:00;100126.88;;;36.35;nan
21153;BME280;10734;44.792;20.482;2023-08-20T16:43:31;100124.56;;;35.58;nan
21153;BME280;10734;44.792;20.482;2023-08-20T16:45:58;100129.16;;;35.64;nan
21153;BME280;10734;44.792;20.482;2023-08-20T16:48:29;100120.31;;;35.43;nan
21153;BME280;10734;44.792;20.482;2023-08-20T16:50:59;100122.31;;;34.84;nan
21153;BME280;10734;44.792;20.482;2023-08-20T16:53:27;100122.91;;;34.39;nan
21153;BME280;10734;44.792;20.482;2023-08-20T16:55:55;100120.19;;;34.21;nan
21153;BME280;10734;44.792;20.482;2023-08-20T16:58:22;100128.97;;;33.94;nan
21153;BME280;10734;44.792;20.482;2023-08-20T17:00:49;100124.06;;;33.89;nan
21153;BME280;10734;44.792;20.482;2023-08-20T17:03:16;100122.56;;;33.75;nan
21153;BME280;10734;44.792;20.482;2023-08-20T17:05:44;100121.69;;;33.63;nan
21153;BME280;10734;44.792;20.482;2023-08-20T17:08:10;100111.03;;;33.35;nan
21153;BME280;10734;44.792;20.482;2023-08-20T17:10:38;100123.94;;;33.17;nan
21153;BME280;10734;44.792;20.482;2023-08-20T17:13:05;100125.38;;;33.02;nan
21153;BME280;10734;44.792;20.482;2023-08-20T17:15:31;100121.72;;;32.83;nan
21153;BME280;10734;44.792;20.482;2023-08-20T17:17:58;100117.81;;;32.65;nan
21153;BME280;10734;44.792;20.482;2023-08-20T17:20:25;100121.00;;;32.69;nan
21153;BME280;10734;44.792;20.482;2023-08-20T17:22:52;100118.88;;;32.64;nan
21153;BME280;10734;44.792;20.482;2023-08-20T17:25:19;100129.94;;;32.53;nan
21153;BME280;10734;44.792;20.482;2023-08-20T17:27:46;100129.16;;;32.45;nan
21153;BME280;10734;44.792;20.482;2023-08-20T17:30:13;100130.06;;;32.33;nan
21153;BME280;10734;44.792;20.482;2023-08-20T17:32:40;100135.59;;;32.14;nan
21153;BME280;10734;44.792;20.482;2023-08-20T17:35:07;100136.53;;;32.01;nan
21153;BME280;10734;44.792;20.482;2023-08-20T17:37:36;100126.97;;;31.84;nan
21153;BME280;10734;44.792;20.482;2023-08-20T17:40:04;100124.44;;;31.76;nan
21153;BME280;10734;44.792;20.482;2023-08-20T17:42:31;100130.09;;;31.63;nan
21153;BME280;10734;44.792;20.482;2023-08-20T17:44:58;100129.91;;;31.57;nan
21153;BME280;10734;44.792;20.482;2023-08-20T17:47:25;100137.44;;;31.50;nan
21153;BME280;10734;44.792;20.482;2023-08-20T17:49:53;100136.19;;;31.40;nan
21153;BME280;10734;44.792;20.482;2023-08-20T17:52:22;100137.47;;;31.30;nan
21153;BME280;10734;44.792;20.482;2023-08-20T17:54:50;100140.94;;;31.26;nan
21153;BME280;10734;44.792;20.482;2023-08-20T17:57:17;100148.44;;;31.19;nan
21153;BME280;10734;44.792;20.482;2023-08-20T17:59:44;100146.09;;;31.16;nan
21153;BME280;10734;44.792;20.482;2023-08-20T18:02:11;100149.31;;;31.13;nan
21153;BME280;10734;44.792;20.482;2023-08-20T18:04:37;100155.75;;;31.06;nan
21153;BME280;10734;44.792;20.482;2023-08-20T18:07:04;100149.78;;;30.96;nan
21153;BME280;10734;44.792;20.482;2023-08-20T18:09:31;100152.59;;;30.83;nan
21153;BME280;10734;44.792;20.482;2023-08-20T18:11:59;100143.59;;;30.74;nan
21153;BME280;10734;44.792;20.482;2023-08-20T18:14:25;100150.00;;;30.61;nan
21153;BME280;10734;44.792;20.482;2023-08-20T18:16:53;100152.13;;;30.59;nan
21153;BME280;10734;44.792;20.482;2023-08-20T18:19:19;100153.66;;;30.55;nan
21153;BME280;10734;44.792;20.482;2023-08-20T18:21:47;100159.44;;;30.47;nan
21153;BME280;10734;44.792;20.482;2023-08-20T18:24:13;100163.25;;;30.46;nan
21153;BME280;10734;44.792;20.482;2023-08-20T18:26:40;100164.34;;;30.38;nan
21153;BME280;10734;44.792;20.482;2023-08-20T18:29:07;100157.06;;;30.31;nan
21153;BME280;10734;44.792;20.482;2023-08-20T18:31:34;100172.66;;;30.25;nan
21153;BME280;10734;44.792;20.482;2023-08-20T18:34:01;100167.94;;;30.19;nan
21153;BME280;10734;44.792;20.482;2023-08-20T18:36:28;100174.34;;;30.13;nan
21153;BME280;10734;44.792;20.482;2023-08-20T18:38:57;100174.31;;;30.06;nan
21153;BME280;10734;44.792;20.482;2023-08-20T18:41:24;100180.47;;;30.02;nan
21153;BME280;10734;44.792;20.482;2023-08-20T18:43:51;100179.41;;;29.96;nan
21153;BME280;10734;44.792;20.482;2023-08-20T18:46:18;100186.84;;;29.89;nan
21153;BME280;10734;44.792;20.482;2023-08-20T18:48:45;100181.72;;;29.79;nan
21153;BME280;10734;44.792;20.482;2023-08-20T18:51:12;100186.38;;;29.72;nan
21153;BME280;10734;44.792;20.482;2023-08-20T18:53:42;100179.31;;;29.63;nan
21153;BME280;10734;44.792;20.482;2023-08-20T18:56:08;100178.56;;;29.47;nan
21153;BME280;10734;44.792;20.482;2023-08-20T18:58:35;100186.00;;;29.40;nan
21153;BME280;10734;44.792;20.482;2023-08-20T19:01:02;100181.72;;;29.38;nan